createdAt,value
2017-07-17T00:01:12.315Z,21.00
2017-07-17T00:03:39.796Z,21.00
2017-07-17T00:06:07.274Z,21.00
2017-07-17T00:08:34.779Z,21.00
2017-07-17T00:11:02.299Z,21.00
2017-07-17T00:13:29.796Z,21.00
2017-07-17T00:15:57.294Z,20.80
2017-07-17T00:18:24.791Z,20.80
2017-07-17T00:20:53.039Z,20.80
2017-07-17T00:23:20.540Z,20.80
2017-07-17T00:25:48.033Z,20.80
2017-07-17T00:28:15.540Z,20.80
2017-07-17T00:30:43.023Z,20.70
2017-07-17T00:33:10.534Z,20.70
2017-07-17T00:35:38.026Z,20.70
2017-07-17T00:38:06.303Z,20.60
2017-07-17T00:40:33.797Z,20.60
2017-07-17T00:43:02.055Z,20.60
2017-07-17T00:45:29.554Z,20.70
2017-07-17T00:47:57.047Z,20.60
2017-07-17T00:50:25.320Z,20.50
2017-07-17T00:52:52.820Z,20.40
2017-07-17T00:55:21.075Z,20.50
2017-07-17T00:57:48.564Z,20.50
2017-07-17T01:00:16.079Z,20.50
2017-07-17T01:02:43.568Z,20.60
2017-07-17T01:05:11.065Z,20.50
2017-07-17T01:07:38.542Z,20.50
2017-07-17T01:10:06.048Z,20.40
2017-07-17T01:12:33.523Z,20.50
2017-07-17T01:15:01.022Z,20.50
2017-07-17T01:17:28.502Z,20.40
2017-07-17T01:19:55.987Z,20.30
2017-07-17T01:22:23.482Z,20.30
2017-07-17T01:24:50.970Z,20.30
2017-07-17T01:27:18.482Z,20.50
2017-07-17T01:29:45.967Z,20.40
2017-07-17T01:32:14.239Z,20.40
2017-07-17T01:34:41.726Z,20.30
2017-07-17T01:37:09.234Z,20.40
2017-07-17T01:39:36.723Z,20.40
2017-07-17T01:42:04.227Z,20.50
2017-07-17T01:44:31.700Z,20.50
2017-07-17T01:46:59.203Z,20.50
2017-07-17T01:49:26.681Z,20.40
2017-07-17T01:51:54.175Z,20.50
2017-07-17T01:54:21.651Z,20.50
2017-07-17T01:56:49.143Z,20.50
2017-07-17T01:59:16.636Z,20.50
2017-07-17T02:01:44.115Z,20.70
2017-07-17T02:04:11.615Z,20.70
2017-07-17T02:06:39.111Z,20.70
2017-07-17T02:09:07.383Z,20.60
2017-07-17T02:11:34.871Z,20.60
2017-07-17T02:14:02.370Z,20.60
2017-07-17T02:16:30.616Z,20.50
2017-07-17T02:18:58.127Z,20.50
2017-07-17T02:21:26.387Z,20.50
2017-07-17T02:23:53.916Z,20.50
2017-07-17T02:26:21.411Z,20.40
2017-07-17T02:28:48.945Z,20.50
2017-07-17T02:31:17.187Z,20.50
2017-07-17T02:33:44.691Z,20.50
2017-07-17T02:36:12.167Z,20.40
2017-07-17T02:38:39.656Z,20.50
2017-07-17T02:41:07.166Z,20.30
2017-07-17T02:43:34.643Z,20.30
2017-07-17T02:46:02.147Z,20.20
2017-07-17T02:48:29.632Z,20.20
2017-07-17T02:50:57.136Z,20.20
2017-07-17T02:53:25.395Z,20.10
2017-07-17T02:55:52.892Z,20.10
2017-07-17T02:58:20.378Z,20.20
2017-07-17T03:00:47.871Z,20.00
2017-07-17T03:03:15.360Z,20.00
2017-07-17T03:05:42.859Z,20.10
2017-07-17T03:08:10.344Z,20.10
2017-07-17T03:10:37.844Z,20.10
2017-07-17T03:13:05.328Z,20.00
2017-07-17T03:15:33.600Z,20.10
2017-07-17T03:18:01.084Z,20.10
2017-07-17T03:20:28.581Z,20.10
2017-07-17T03:22:56.839Z,20.00
2017-07-17T03:25:24.346Z,20.00
2017-07-17T03:27:52.595Z,20.00
2017-07-17T03:30:20.090Z,20.00
2017-07-17T03:32:47.570Z,20.00
2017-07-17T03:35:15.059Z,20.10
2017-07-17T03:37:43.336Z,20.10
2017-07-17T03:40:10.830Z,20.10
2017-07-17T03:42:39.107Z,20.00
2017-07-17T03:45:06.583Z,19.90
2017-07-17T03:47:34.097Z,19.90
2017-07-17T03:50:02.355Z,20.00
2017-07-17T03:52:29.858Z,20.00
2017-07-17T03:54:57.367Z,19.90
2017-07-17T03:57:24.873Z,19.90
2017-07-17T03:59:52.365Z,19.90
2017-07-17T04:02:19.875Z,20.00
2017-07-17T04:04:47.375Z,19.90
2017-07-17T04:07:14.873Z,19.80
2017-07-17T04:09:42.355Z,19.80
2017-07-17T04:12:09.826Z,19.80
2017-07-17T04:14:37.327Z,19.90
2017-07-17T04:17:04.806Z,19.90
2017-07-17T04:19:32.323Z,20.00
2017-07-17T04:21:59.802Z,20.00
2017-07-17T04:24:27.302Z,20.00
2017-07-17T04:26:54.786Z,20.00
2017-07-17T04:29:22.295Z,19.90
2017-07-17T04:31:50.558Z,19.80
2017-07-17T04:34:18.064Z,19.90
2017-07-17T04:36:46.305Z,19.70
2017-07-17T04:39:13.812Z,19.70
2017-07-17T04:41:41.298Z,19.80
2017-07-17T04:44:08.823Z,19.80
2017-07-17T04:46:36.306Z,19.90
2017-07-17T04:49:03.782Z,19.90
2017-07-17T04:51:31.275Z,19.90
2017-07-17T04:53:58.765Z,20.10
2017-07-17T04:56:26.259Z,20.20
2017-07-17T04:58:54.525Z,20.30
2017-07-17T05:01:22.019Z,20.20
2017-07-17T05:03:49.490Z,20.30
2017-07-17T05:06:16.996Z,20.50
2017-07-17T05:08:44.470Z,20.40
2017-07-17T05:11:11.978Z,20.30
2017-07-17T05:13:39.467Z,20.40
2017-07-17T05:16:06.968Z,20.60
2017-07-17T05:18:34.453Z,20.40
2017-07-17T05:21:01.923Z,20.40
2017-07-17T05:23:29.414Z,20.50
2017-07-17T05:25:56.897Z,20.80
2017-07-17T05:28:24.406Z,20.80
2017-07-17T05:30:51.882Z,21.00
2017-07-17T05:33:19.399Z,21.10
2017-07-17T05:35:46.879Z,21.10
2017-07-17T05:38:15.140Z,21.30
2017-07-17T05:40:42.627Z,21.30
2017-07-17T05:43:10.123Z,21.30
2017-07-17T05:45:37.599Z,21.40
2017-07-17T05:48:05.099Z,21.70
2017-07-17T05:50:32.579Z,21.90
2017-07-17T05:53:00.074Z,22.00
2017-07-17T05:55:27.575Z,21.90
2017-07-17T05:57:55.043Z,21.90
2017-07-17T06:00:22.532Z,22.10
2017-07-17T06:02:50.799Z,22.40
2017-07-17T06:05:18.292Z,22.40
2017-07-17T06:07:45.771Z,22.10
2017-07-17T06:10:13.263Z,22.50
2017-07-17T06:12:40.739Z,22.40
2017-07-17T06:15:08.227Z,22.50
2017-07-17T06:17:36.467Z,22.30
2017-07-17T06:20:03.959Z,22.30
2017-07-17T06:22:31.433Z,22.40
2017-07-17T06:24:58.926Z,22.40
2017-07-17T06:27:26.399Z,22.20
2017-07-17T06:29:53.883Z,22.00
2017-07-17T06:32:21.372Z,22.10
2017-07-17T06:34:49.631Z,21.80
2017-07-17T06:37:17.170Z,21.80
2017-07-17T06:39:44.644Z,21.70
2017-07-17T06:42:12.145Z,22.00
2017-07-17T06:44:39.623Z,23.10
2017-07-17T06:47:07.119Z,23.90
2017-07-17T06:49:34.604Z,25.40
2017-07-17T06:52:02.110Z,26.90
2017-07-17T06:54:29.598Z,27.00
2017-07-17T06:56:57.096Z,27.10
2017-07-17T06:59:24.575Z,25.90
2017-07-17T07:01:52.076Z,25.40
2017-07-17T07:04:19.565Z,25.20
2017-07-17T07:06:47.071Z,24.90
2017-07-17T07:09:14.555Z,24.90
2017-07-17T07:11:42.051Z,25.00
2017-07-17T07:14:09.527Z,25.70
2017-07-17T07:16:37.074Z,25.80
2017-07-17T07:19:04.528Z,26.30
2017-07-17T07:21:32.778Z,27.80
2017-07-17T07:24:00.275Z,27.80
2017-07-17T07:26:27.754Z,28.40
2017-07-17T07:28:55.248Z,28.30
2017-07-17T07:31:23.496Z,27.30
2017-07-17T07:33:50.988Z,27.20
2017-07-17T07:36:18.463Z,28.00
2017-07-17T07:38:45.948Z,27.90
2017-07-17T07:41:13.435Z,29.40
2017-07-17T07:43:41.706Z,29.70
2017-07-17T07:46:09.188Z,29.70
2017-07-17T07:48:36.680Z,30.60
2017-07-17T07:51:04.937Z,31.10
2017-07-17T07:53:32.414Z,31.10
2017-07-17T07:55:59.916Z,31.90
2017-07-17T07:58:27.400Z,32.00
2017-07-17T08:00:55.707Z,31.60
2017-07-17T08:03:23.204Z,31.60
2017-07-17T08:05:50.711Z,32.60
2017-07-17T08:08:18.209Z,32.80
2017-07-17T08:10:45.708Z,33.80
2017-07-17T08:13:13.199Z,33.80
2017-07-17T08:15:40.707Z,33.90
2017-07-17T08:18:08.192Z,33.20
2017-07-17T08:20:35.699Z,31.90
2017-07-17T08:23:03.192Z,32.60
2017-07-17T08:25:30.695Z,32.40
2017-07-17T08:27:58.190Z,32.50
2017-07-17T08:30:25.687Z,31.20
2017-07-17T08:32:53.167Z,31.50
2017-07-17T08:35:20.696Z,32.30
2017-07-17T08:37:48.193Z,32.80
2017-07-17T08:40:15.705Z,33.30
2017-07-17T08:42:43.187Z,31.20
2017-07-17T08:45:11.455Z,30.00
2017-07-17T08:47:38.947Z,30.00
2017-07-17T08:50:07.208Z,28.50
2017-07-17T08:52:34.712Z,28.40
2017-07-17T08:55:02.967Z,28.40
2017-07-17T08:57:30.462Z,28.40
2017-07-17T08:59:57.985Z,28.50
2017-07-17T09:02:25.490Z,27.60
2017-07-17T09:04:52.984Z,26.80
2017-07-17T09:07:20.485Z,26.40
2017-07-17T09:09:48.732Z,27.20
2017-07-17T09:12:16.241Z,27.20
2017-07-17T09:14:43.720Z,27.60
2017-07-17T09:17:11.237Z,27.80
2017-07-17T09:19:38.736Z,27.30
2017-07-17T09:22:06.256Z,27.60
2017-07-17T09:24:34.516Z,28.60
2017-07-17T09:27:02.044Z,28.60
2017-07-17T09:29:30.299Z,28.20
2017-07-17T09:31:57.785Z,28.20
2017-07-17T09:34:25.296Z,28.00
2017-07-17T09:36:52.781Z,28.00
2017-07-17T09:39:20.281Z,28.00
2017-07-17T09:41:47.779Z,28.30
2017-07-17T09:44:15.287Z,28.30
2017-07-17T09:46:42.774Z,28.40
2017-07-17T09:49:10.272Z,26.90
2017-07-17T09:51:37.754Z,27.20
2017-07-17T09:54:05.267Z,27.30
2017-07-17T09:56:32.753Z,27.10
2017-07-17T09:59:01.032Z,26.20
2017-07-17T10:01:28.517Z,26.10
2017-07-17T10:03:56.029Z,26.40
2017-07-17T10:06:23.515Z,27.00
2017-07-17T10:08:50.993Z,27.20
2017-07-17T10:11:18.503Z,26.90
2017-07-17T10:13:45.995Z,26.90
2017-07-17T10:16:13.503Z,27.70
2017-07-17T10:18:40.992Z,28.20
2017-07-17T10:21:08.493Z,28.20
2017-07-17T10:23:35.977Z,28.40
2017-07-17T10:26:03.479Z,28.70
2017-07-17T10:28:31.902Z,28.80
2017-07-17T10:30:59.400Z,28.60
2017-07-17T10:33:26.895Z,28.30
2017-07-17T10:35:54.391Z,28.00
2017-07-17T10:38:21.878Z,28.00
2017-07-17T10:40:50.190Z,27.70
2017-07-17T10:43:17.689Z,27.60
2017-07-17T10:45:45.208Z,27.70
2017-07-17T10:48:12.720Z,27.60
2017-07-17T10:50:40.227Z,27.40
2017-07-17T10:53:07.719Z,27.10
2017-07-17T10:55:35.210Z,27.20
2017-07-17T10:58:02.726Z,27.30
2017-07-17T11:00:30.210Z,27.50
2017-07-17T11:02:57.724Z,27.60
2017-07-17T11:05:25.212Z,27.50
2017-07-17T11:07:52.711Z,27.30
2017-07-17T11:10:20.976Z,27.20
2017-07-17T11:12:48.477Z,27.20
2017-07-17T11:15:15.955Z,27.40
2017-07-17T11:17:44.222Z,27.40
2017-07-17T11:20:11.715Z,27.40
2017-07-17T11:22:39.235Z,27.60
2017-07-17T11:25:06.731Z,27.90
2017-07-17T11:27:34.227Z,28.10
2017-07-17T11:30:01.715Z,27.70
2017-07-17T11:32:29.222Z,27.70
2017-07-17T11:34:56.711Z,27.90
2017-07-17T11:37:24.203Z,27.40
2017-07-17T11:39:51.703Z,27.50
2017-07-17T11:42:19.204Z,27.40
2017-07-17T11:44:47.456Z,27.40
2017-07-17T11:59:54.146Z,27.50
2017-07-17T12:02:22.398Z,28.10
2017-07-17T12:04:49.894Z,28.10
2017-07-17T12:07:17.370Z,28.40
2017-07-17T12:09:44.870Z,28.40
2017-07-17T12:12:12.339Z,28.60
2017-07-17T12:14:40.621Z,28.80
2017-07-17T12:17:08.092Z,28.80
2017-07-17T12:19:35.590Z,29.00
2017-07-17T12:22:03.877Z,29.30
2017-07-17T12:24:32.154Z,29.00
2017-07-17T12:26:59.626Z,28.90
2017-07-17T12:29:27.119Z,29.40
2017-07-17T12:31:54.599Z,29.20
2017-07-17T12:34:22.079Z,29.30
2017-07-17T12:36:49.580Z,29.50
2017-07-17T12:39:17.054Z,29.90
2017-07-17T12:41:44.563Z,29.50
2017-07-17T12:44:12.043Z,28.90
2017-07-17T12:46:39.529Z,28.70
2017-07-17T12:49:06.998Z,28.80
2017-07-17T12:51:34.488Z,28.80
2017-07-17T12:54:01.972Z,29.00
2017-07-17T12:56:30.233Z,28.90
2017-07-17T12:58:57.710Z,28.90
2017-07-17T13:01:25.206Z,29.20
2017-07-17T13:03:52.690Z,29.30
2017-07-17T13:06:20.197Z,29.30
2017-07-17T13:08:47.670Z,29.10
2017-07-17T13:11:15.181Z,29.20
2017-07-17T13:13:42.654Z,29.50
2017-07-17T13:16:10.140Z,29.10
2017-07-17T13:18:37.630Z,28.70
2017-07-17T13:21:05.106Z,28.30
2017-07-17T13:23:32.590Z,28.40
2017-07-17T13:26:00.060Z,28.50
2017-07-17T13:28:27.551Z,28.60
2017-07-17T13:30:55.792Z,28.70
2017-07-17T13:33:23.274Z,28.70
2017-07-17T13:35:50.745Z,28.50
2017-07-17T13:38:18.249Z,28.00
2017-07-17T13:40:45.721Z,27.60
2017-07-17T13:43:13.204Z,27.50
2017-07-17T13:45:40.694Z,27.70
2017-07-17T13:48:08.936Z,28.50
2017-07-17T13:50:36.430Z,28.50
2017-07-17T13:53:03.902Z,28.80
2017-07-17T13:55:31.402Z,28.90
2017-07-17T13:57:58.880Z,28.60
2017-07-17T14:00:26.371Z,28.80
2017-07-17T14:02:54.611Z,29.00
2017-07-17T14:05:22.099Z,29.00
2017-07-17T14:07:49.574Z,29.00
2017-07-17T14:10:17.072Z,28.50
2017-07-17T14:12:44.547Z,28.10
2017-07-17T14:15:12.058Z,27.70
2017-07-17T14:17:39.535Z,27.20
2017-07-17T14:20:07.039Z,27.20
2017-07-17T14:22:34.518Z,26.80
2017-07-17T14:25:02.024Z,26.80
2017-07-17T14:27:29.506Z,26.70
2017-07-17T14:29:57.029Z,26.60
2017-07-17T14:32:24.524Z,26.40
2017-07-17T14:34:52.008Z,26.50
2017-07-17T14:37:19.507Z,26.90
2017-07-17T14:39:46.984Z,26.60
2017-07-17T14:42:14.501Z,26.80
2017-07-17T14:44:41.970Z,26.50
2017-07-17T14:47:09.467Z,26.50
2017-07-17T14:49:36.953Z,26.50
2017-07-17T14:52:04.466Z,26.40
2017-07-17T14:54:32.714Z,27.30
2017-07-17T14:57:00.215Z,27.20
2017-07-17T14:59:27.699Z,27.70
2017-07-17T15:01:55.194Z,28.20
2017-07-17T15:04:23.440Z,28.10
2017-07-17T15:06:50.934Z,28.10
2017-07-17T15:09:18.402Z,28.10
2017-07-17T15:11:45.895Z,28.20
2017-07-17T15:14:13.364Z,28.10
2017-07-17T15:16:41.647Z,27.50
2017-07-17T15:19:09.116Z,27.50
2017-07-17T15:21:36.590Z,27.30
2017-07-17T15:24:04.092Z,27.30
2017-07-17T15:26:31.561Z,27.50
2017-07-17T15:28:59.038Z,27.50
2017-07-17T15:31:26.521Z,27.60
2017-07-17T15:33:54.015Z,27.70
2017-07-17T15:36:21.479Z,27.70
2017-07-17T15:38:48.970Z,27.70
2017-07-17T15:41:17.202Z,27.00
2017-07-17T15:43:44.686Z,27.00
2017-07-17T15:46:12.167Z,27.20
2017-07-17T15:48:39.653Z,27.30
2017-07-17T15:51:07.131Z,27.10
2017-07-17T15:53:34.614Z,27.20
2017-07-17T15:56:02.083Z,27.40
2017-07-17T15:58:29.557Z,27.40
2017-07-17T16:00:57.051Z,27.70
2017-07-17T16:03:25.290Z,26.90
2017-07-17T16:05:52.787Z,26.90
2017-07-17T16:08:20.255Z,26.80
2017-07-17T16:10:47.745Z,26.70
2017-07-17T16:13:15.222Z,26.50
2017-07-17T16:15:42.711Z,26.90
2017-07-17T16:18:10.180Z,27.30
2017-07-17T16:20:37.686Z,27.40
2017-07-17T16:23:05.930Z,27.10
2017-07-17T16:25:33.434Z,27.10
2017-07-17T16:28:00.940Z,27.00
2017-07-17T16:30:28.422Z,27.10
2017-07-17T16:32:55.905Z,27.00
2017-07-17T16:35:23.380Z,27.20
2017-07-17T16:37:50.866Z,27.10
2017-07-17T16:40:18.335Z,27.10
2017-07-17T16:42:45.832Z,27.10
2017-07-17T16:45:13.310Z,27.20
2017-07-17T16:47:40.806Z,27.30
2017-07-17T16:50:08.278Z,27.20
2017-07-17T16:52:35.777Z,27.30
2017-07-17T16:55:03.244Z,27.30
2017-07-17T16:57:31.512Z,27.20
2017-07-17T16:59:58.993Z,27.20
2017-07-17T17:02:26.486Z,27.30
2017-07-17T17:04:53.951Z,27.40
2017-07-17T17:07:21.450Z,27.40
2017-07-17T17:09:48.924Z,27.10
2017-07-17T17:12:17.195Z,26.90
2017-07-17T17:14:44.670Z,26.90
2017-07-17T17:17:12.146Z,27.00
2017-07-17T17:19:39.651Z,27.10
2017-07-17T17:22:07.136Z,27.20
2017-07-17T17:24:34.637Z,26.80
2017-07-17T17:27:02.119Z,26.50
2017-07-17T17:29:30.446Z,26.30
2017-07-17T17:31:57.931Z,26.50
2017-07-17T17:34:26.186Z,26.30
2017-07-17T17:36:53.667Z,26.30
2017-07-17T17:39:21.154Z,26.20
2017-07-17T17:41:48.639Z,26.10
2017-07-17T17:44:16.160Z,25.90
2017-07-17T17:46:43.648Z,25.90
2017-07-17T17:49:11.142Z,25.80
2017-07-17T17:51:38.618Z,25.70
2017-07-17T17:54:06.119Z,25.70
2017-07-17T17:56:33.606Z,25.60
2017-07-17T17:59:01.173Z,25.50
2017-07-17T18:01:28.781Z,25.40
2017-07-17T18:03:56.400Z,25.30
2017-07-17T18:06:24.017Z,25.30
2017-07-17T18:08:51.625Z,25.30
2017-07-17T18:11:19.252Z,25.20
2017-07-17T18:13:46.865Z,25.20
2017-07-17T18:16:14.483Z,25.20
2017-07-17T18:18:42.085Z,25.20
2017-07-17T18:21:09.720Z,25.10
2017-07-17T18:23:37.314Z,25.10
2017-07-17T18:26:04.929Z,25.00
2017-07-17T18:28:32.554Z,24.90
2017-07-17T18:31:00.172Z,24.80
2017-07-17T18:33:27.767Z,24.80
2017-07-17T18:35:55.399Z,24.70
2017-07-17T18:38:23.008Z,24.60
2017-07-17T18:40:50.634Z,24.50
2017-07-17T18:43:18.243Z,24.30
2017-07-17T18:45:45.781Z,24.20
2017-07-17T18:48:13.287Z,24.20
2017-07-17T18:50:40.830Z,24.30
2017-07-17T18:53:08.338Z,24.10
2017-07-17T18:55:35.843Z,24.10
2017-07-17T18:58:03.335Z,24.00
2017-07-17T19:00:30.830Z,24.00
2017-07-17T19:02:58.336Z,23.90
2017-07-17T19:05:25.821Z,23.90
2017-07-17T19:07:53.334Z,23.70
2017-07-17T19:10:20.821Z,23.70
2017-07-17T19:12:48.326Z,23.70
2017-07-17T19:15:15.814Z,23.70
2017-07-17T19:17:43.492Z,23.50
2017-07-17T19:20:10.994Z,23.40
2017-07-17T19:22:38.496Z,23.40
2017-07-17T19:25:05.983Z,23.50
2017-07-17T19:27:33.496Z,23.30
2017-07-17T19:30:00.991Z,23.30
2017-07-17T19:32:28.495Z,23.20
2017-07-17T19:34:55.990Z,23.20
2017-07-17T19:37:23.513Z,23.20
2017-07-17T19:39:51.023Z,23.10
2017-07-17T19:42:18.532Z,23.00
2017-07-17T19:44:46.028Z,23.00
2017-07-17T19:47:13.521Z,22.90
2017-07-17T19:49:41.057Z,22.80
2017-07-17T19:52:08.560Z,22.80
2017-07-17T19:54:36.101Z,22.90
2017-07-17T19:57:03.587Z,22.90
2017-07-17T19:59:31.091Z,22.90
2017-07-17T20:01:58.587Z,22.90
2017-07-17T20:04:26.094Z,22.80
2017-07-17T20:06:53.596Z,22.80
2017-07-17T20:09:21.108Z,22.80
2017-07-17T20:11:48.587Z,22.70
2017-07-17T20:14:16.126Z,22.70
2017-07-17T20:16:43.628Z,22.70
2017-07-17T20:19:11.144Z,22.70
2017-07-17T20:21:38.630Z,22.60
2017-07-17T20:24:06.142Z,22.60
2017-07-17T20:26:33.633Z,22.50
2017-07-17T20:29:01.155Z,22.40
2017-07-17T20:31:28.641Z,22.50
2017-07-17T20:33:56.134Z,22.40
2017-07-17T20:36:23.649Z,22.30
2017-07-17T20:38:51.141Z,22.30
2017-07-17T20:41:18.658Z,22.20
2017-07-17T20:43:46.147Z,22.10
2017-07-17T20:46:13.651Z,22.00
2017-07-17T20:48:41.126Z,22.00
2017-07-17T20:51:08.610Z,22.00
2017-07-17T20:53:36.078Z,22.00
2017-07-17T20:56:03.575Z,22.00
2017-07-17T20:58:31.839Z,21.80
2017-07-17T21:00:59.348Z,21.80
2017-07-17T21:03:26.827Z,21.70
2017-07-17T21:05:54.343Z,21.60
2017-07-17T21:08:21.819Z,21.60
2017-07-17T21:10:49.295Z,21.60
2017-07-17T21:13:16.790Z,21.60
2017-07-17T21:15:44.267Z,21.60
2017-07-17T21:18:11.763Z,21.60
2017-07-17T21:20:39.222Z,21.50
2017-07-17T21:23:06.723Z,21.50
2017-07-17T21:25:34.202Z,21.50
2017-07-17T21:28:01.690Z,21.40
2017-07-17T21:30:29.938Z,21.30
2017-07-17T21:32:57.434Z,21.30
2017-07-17T21:35:24.914Z,21.40
2017-07-17T21:37:52.398Z,21.20
2017-07-17T21:40:19.897Z,21.20
2017-07-17T21:42:47.377Z,21.20
2017-07-17T21:45:15.633Z,21.20
2017-07-17T21:47:43.134Z,21.20
2017-07-17T21:50:11.375Z,21.20
2017-07-17T21:52:38.863Z,21.20
2017-07-17T21:55:07.196Z,21.20
2017-07-17T21:57:34.699Z,21.10
2017-07-17T22:00:02.176Z,21.00
2017-07-17T22:02:29.667Z,21.00
2017-07-17T22:04:57.309Z,21.00
2017-07-17T22:07:24.860Z,20.90
2017-07-17T22:09:52.343Z,21.00
2017-07-17T22:12:19.828Z,20.90
2017-07-17T22:14:48.129Z,20.80
2017-07-17T22:17:16.387Z,20.80
2017-07-17T22:19:43.923Z,20.80
2017-07-17T22:22:11.443Z,20.80
2017-07-17T22:24:38.969Z,20.80
2017-07-17T22:27:06.446Z,20.80
2017-07-17T22:29:33.941Z,20.70
2017-07-17T22:32:01.419Z,20.70
2017-07-17T22:34:28.907Z,20.70
2017-07-17T22:36:56.383Z,20.70
2017-07-17T22:39:23.886Z,20.70
2017-07-17T22:41:51.362Z,20.60
2017-07-17T22:44:18.837Z,20.60
2017-07-17T22:46:46.330Z,20.70
2017-07-17T22:49:13.813Z,20.60
2017-07-17T22:51:42.067Z,20.70
2017-07-17T22:54:09.543Z,20.60
2017-07-17T22:56:37.030Z,20.60
2017-07-17T22:59:04.510Z,20.50
2017-07-17T23:01:32.039Z,20.50
2017-07-17T23:03:59.543Z,20.50
2017-07-17T23:06:27.044Z,20.40
2017-07-17T23:08:54.516Z,20.50
2017-07-17T23:11:22.064Z,20.50
2017-07-17T23:13:49.567Z,20.50
2017-07-17T23:16:17.057Z,20.50
2017-07-17T23:18:45.303Z,20.40
2017-07-17T23:21:12.799Z,20.30
2017-07-17T23:23:40.281Z,20.40
2017-07-17T23:26:07.778Z,20.40
2017-07-17T23:28:36.027Z,20.30
2017-07-17T23:31:03.524Z,20.20
2017-07-17T23:33:31.003Z,20.30
2017-07-17T23:35:58.511Z,20.10
2017-07-17T23:38:25.986Z,20.20
2017-07-17T23:40:53.463Z,20.20
2017-07-17T23:43:20.975Z,20.10
2017-07-17T23:45:48.442Z,20.00
2017-07-17T23:48:15.945Z,20.20
2017-07-17T23:50:43.431Z,20.20
2017-07-17T23:53:10.939Z,20.00
2017-07-17T23:55:38.422Z,20.00
2017-07-17T23:58:05.920Z,20.00
